sensor_id;sensor_type;location;lat;lon;timestamp;pressure;altitude;pressure_sealevel;temperature;humidity
11049;BME280;5577;42.706;23.160;2022-09-09T00:00:32;94406.09;;;16.79;100.00
11049;BME280;5577;42.706;23.160;2022-09-09T00:03:54;94391.22;;;16.88;100.00
11049;BME280;5577;42.706;23.160;2022-09-09T00:13:38;94394.63;;;16.78;100.00
11049;BME280;5577;42.706;23.160;2022-09-09T00:16:27;94389.28;;;16.78;100.00
11049;BME280;5577;42.706;23.160;2022-09-09T00:19:27;94386.59;;;16.75;100.00
11049;BME280;5577;42.706;23.160;2022-09-09T00:22:19;94357.16;;;16.68;100.00
11049;BME280;5577;42.706;23.160;2022-09-09T00:25:19;94361.00;;;16.63;100.00
11049;BME280;5577;42.706;23.160;2022-09-09T00:28:35;94360.22;;;16.66;100.00
11049;BME280;5577;42.706;23.160;2022-09-09T00:31:26;94352.22;;;16.70;100.00
11049;BME280;5577;42.706;23.160;2022-09-09T00:34:13;94324.25;;;16.39;100.00
11049;BME280;5577;42.706;23.160;2022-09-09T00:37:00;94360.59;;;16.65;100.00
11049;BME280;5577;42.706;23.160;2022-09-09T00:39:47;94353.31;;;16.51;100.00
11049;BME280;5577;42.706;23.160;2022-09-09T00:42:42;94353.31;;;16.48;100.00
11049;BME280;5577;42.706;23.160;2022-09-09T00:55:48;94361.97;;;16.27;100.00
11049;BME280;5577;42.706;23.160;2022-09-09T00:58:33;94368.41;;;16.19;100.00
11049;BME280;5577;42.706;23.160;2022-09-09T01:01:17;94359.28;;;16.24;100.00
11049;BME280;5577;42.706;23.160;2022-09-09T01:04:06;94361.94;;;16.20;100.00
11049;BME280;5577;42.706;23.160;2022-09-09T01:06:57;94346.66;;;16.14;100.00
11049;BME280;5577;42.706;23.160;2022-09-09T01:12:41;94363.84;;;16.23;100.00
11049;BME280;5577;42.706;23.160;2022-09-09T01:15:29;94366.53;;;16.23;100.00
11049;BME280;5577;42.706;23.160;2022-09-09T01:18:17;94360.81;;;16.21;100.00
11049;BME280;5577;42.706;23.160;2022-09-09T01:27:03;94358.41;;;16.02;100.00
11049;BME280;5577;42.706;23.160;2022-09-09T01:29:49;94361.81;;;15.99;100.00
11049;BME280;5577;42.706;23.160;2022-09-09T01:32:48;94340.78;;;15.91;100.00
11049;BME280;5577;42.706;23.160;2022-09-09T01:38:31;94379.44;;;16.11;100.00
11049;BME280;5577;42.706;23.160;2022-09-09T01:41:16;94343.06;;;15.85;100.00
11049;BME280;5577;42.706;23.160;2022-09-09T01:44:01;94377.06;;;15.92;100.00
11049;BME280;5577;42.706;23.160;2022-09-09T01:46:46;94366.38;;;15.92;100.00
11049;BME280;5577;42.706;23.160;2022-09-09T01:49:30;94369.44;;;15.94;100.00
11049;BME280;5577;42.706;23.160;2022-09-09T01:52:16;94374.34;;;15.88;100.00
11049;BME280;5577;42.706;23.160;2022-09-09T01:55:00;94377.72;;;15.78;100.00
11049;BME280;5577;42.706;23.160;2022-09-09T02:04:44;94374.66;;;15.76;100.00
11049;BME280;5577;42.706;23.160;2022-09-09T02:10:20;94366.94;;;15.64;100.00
11049;BME280;5577;42.706;23.160;2022-09-09T02:13:10;94368.88;;;15.67;100.00
11049;BME280;5577;42.706;23.160;2022-09-09T02:16:12;94364.31;;;15.68;100.00
11049;BME280;5577;42.706;23.160;2022-09-09T02:19:10;94371.56;;;15.67;100.00
11049;BME280;5577;42.706;23.160;2022-09-09T02:21:59;94367.00;;;15.68;100.00
11049;BME280;5577;42.706;23.160;2022-09-09T02:24:44;94371.91;;;15.62;100.00
11049;BME280;5577;42.706;23.160;2022-09-09T02:27:29;94373.78;;;15.62;100.00
11049;BME280;5577;42.706;23.160;2022-09-09T02:30:14;94354.59;;;15.42;100.00
11049;BME280;5577;42.706;23.160;2022-09-09T02:32:59;94391.34;;;15.63;100.00
11049;BME280;5577;42.706;23.160;2022-09-09T02:35:46;94390.53;;;15.55;100.00
11049;BME280;5577;42.706;23.160;2022-09-09T02:38:33;94396.56;;;15.49;100.00
11049;BME280;5577;42.706;23.160;2022-09-09T02:41:20;94384.69;;;15.39;100.00
11049;BME280;5577;42.706;23.160;2022-09-09T02:44:14;94384.22;;;15.30;100.00
11049;BME280;5577;42.706;23.160;2022-09-09T02:55:48;94386.13;;;15.33;100.00
11049;BME280;5577;42.706;23.160;2022-09-09T02:58:36;94384.91;;;15.24;100.00
11049;BME280;5577;42.706;23.160;2022-09-09T03:01:21;94382.22;;;15.24;100.00
11049;BME280;5577;42.706;23.160;2022-09-09T03:04:05;94378.41;;;15.21;100.00
11049;BME280;5577;42.706;23.160;2022-09-09T03:06:49;94383.81;;;15.28;100.00
11049;BME280;5577;42.706;23.160;2022-09-09T03:09:33;94384.59;;;15.32;100.00
11049;BME280;5577;42.706;23.160;2022-09-09T03:12:17;94375.44;;;15.30;100.00
11049;BME280;5577;42.706;23.160;2022-09-09T03:15:01;94392.78;;;15.10;100.00
11049;BME280;5577;42.706;23.160;2022-09-09T03:17:45;94386.34;;;15.14;100.00
11049;BME280;5577;42.706;23.160;2022-09-09T03:20:30;94396.22;;;15.14;100.00
11049;BME280;5577;42.706;23.160;2022-09-09T03:23:14;94379.84;;;15.12;100.00
11049;BME280;5577;42.706;23.160;2022-09-09T03:25:59;94366.59;;;15.19;100.00
11049;BME280;5577;42.706;23.160;2022-09-09T03:28:43;94361.97;;;15.16;100.00
11049;BME280;5577;42.706;23.160;2022-09-09T03:31:28;94363.50;;;15.17;100.00
11049;BME280;5577;42.706;23.160;2022-09-09T03:34:13;94365.84;;;15.22;100.00
11049;BME280;5577;42.706;23.160;2022-09-09T03:36:57;94374.22;;;15.20;100.00
11049;BME280;5577;42.706;23.160;2022-09-09T03:39:41;94360.47;;;15.15;100.00
11049;BME280;5577;42.706;23.160;2022-09-09T03:42:26;94382.22;;;15.24;100.00
11049;BME280;5577;42.706;23.160;2022-09-09T03:45:11;94387.06;;;15.11;100.00
11049;BME280;5577;42.706;23.160;2022-09-09T03:47:54;94390.44;;;15.05;100.00
11049;BME280;5577;42.706;23.160;2022-09-09T03:50:39;94379.44;;;15.10;100.00
11049;BME280;5577;42.706;23.160;2022-09-09T03:53:25;94330.16;;;14.53;100.00
11049;BME280;5577;42.706;23.160;2022-09-09T03:56:10;94388.41;;;14.91;100.00
11049;BME280;5577;42.706;23.160;2022-09-09T03:58:54;94392.63;;;14.96;100.00
11049;BME280;5577;42.706;23.160;2022-09-09T04:01:38;94381.25;;;14.99;100.00
11049;BME280;5577;42.706;23.160;2022-09-09T04:04:23;94389.66;;;15.01;100.00
11049;BME280;5577;42.706;23.160;2022-09-09T04:07:07;94385.06;;;15.01;100.00
11049;BME280;5577;42.706;23.160;2022-09-09T04:09:50;94384.34;;;15.04;100.00
11049;BME280;5577;42.706;23.160;2022-09-09T04:12:34;94384.75;;;15.06;100.00
11049;BME280;5577;42.706;23.160;2022-09-09T04:15:18;94393.63;;;15.17;100.00
11049;BME280;5577;42.706;23.160;2022-09-09T04:18:03;94383.75;;;15.21;100.00
11049;BME280;5577;42.706;23.160;2022-09-09T04:20:48;94379.97;;;15.26;100.00
11049;BME280;5577;42.706;23.160;2022-09-09T04:23:32;94388.00;;;15.29;100.00
11049;BME280;5577;42.706;23.160;2022-09-09T04:26:18;94398.75;;;15.36;100.00
11049;BME280;5577;42.706;23.160;2022-09-09T04:29:03;94341.69;;;15.04;100.00
11049;BME280;5577;42.706;23.160;2022-09-09T04:31:47;94396.13;;;15.43;100.00
11049;BME280;5577;42.706;23.160;2022-09-09T04:34:31;94400.38;;;15.48;100.00
11049;BME280;5577;42.706;23.160;2022-09-09T04:37:16;94392.78;;;15.53;100.00
11049;BME280;5577;42.706;23.160;2022-09-09T04:40:01;94398.97;;;15.64;100.00
11049;BME280;5577;42.706;23.160;2022-09-09T04:42:46;94381.44;;;15.63;100.00
11049;BME280;5577;42.706;23.160;2022-09-09T04:45:32;94384.19;;;15.77;100.00
11049;BME280;5577;42.706;23.160;2022-09-09T04:48:17;94383.50;;;15.87;100.00
11049;BME280;5577;42.706;23.160;2022-09-09T04:51:08;94367.50;;;15.91;100.00
11049;BME280;5577;42.706;23.160;2022-09-09T04:53:53;94379.03;;;16.09;100.00
11049;BME280;5577;42.706;23.160;2022-09-09T04:56:37;94368.00;;;16.17;100.00
11049;BME280;5577;42.706;23.160;2022-09-09T04:59:22;94366.16;;;16.21;100.00
11049;BME280;5577;42.706;23.160;2022-09-09T05:02:06;94366.59;;;16.37;100.00
11049;BME280;5577;42.706;23.160;2022-09-09T05:04:50;94368.19;;;16.52;100.00
11049;BME280;5577;42.706;23.160;2022-09-09T05:07:34;94348.75;;;16.59;100.00
11049;BME280;5577;42.706;23.160;2022-09-09T05:10:18;94361.41;;;16.76;100.00
11049;BME280;5577;42.706;23.160;2022-09-09T05:13:02;94365.97;;;16.79;100.00
11049;BME280;5577;42.706;23.160;2022-09-09T05:15:53;94370.22;;;16.97;100.00
11049;BME280;5577;42.706;23.160;2022-09-09T05:18:38;94356.50;;;17.09;100.00
11049;BME280;5577;42.706;23.160;2022-09-09T05:21:24;94306.41;;;16.89;100.00
11049;BME280;5577;42.706;23.160;2022-09-09T05:24:10;94361.09;;;17.30;100.00
11049;BME280;5577;42.706;23.160;2022-09-09T05:26:54;94364.91;;;17.33;100.00
11049;BME280;5577;42.706;23.160;2022-09-09T05:29:42;94377.16;;;17.37;100.00
11049;BME280;5577;42.706;23.160;2022-09-09T05:32:29;94372.59;;;17.48;100.00
11049;BME280;5577;42.706;23.160;2022-09-09T05:35:16;94374.50;;;17.44;100.00
11049;BME280;5577;42.706;23.160;2022-09-09T05:38:02;94364.19;;;17.60;100.00
11049;BME280;5577;42.706;23.160;2022-09-09T05:40:49;94366.44;;;17.69;100.00
11049;BME280;5577;42.706;23.160;2022-09-09T05:43:34;94371.03;;;17.79;100.00
11049;BME280;5577;42.706;23.160;2022-09-09T05:46:21;94381.34;;;17.98;100.00
11049;BME280;5577;42.706;23.160;2022-09-09T05:49:06;94375.59;;;18.06;100.00
11049;BME280;5577;42.706;23.160;2022-09-09T05:51:50;94371.75;;;18.07;100.00
11049;BME280;5577;42.706;23.160;2022-09-09T05:54:34;94366.03;;;18.02;100.00
11049;BME280;5577;42.706;23.160;2022-09-09T05:57:18;94384.72;;;18.19;100.00
11049;BME280;5577;42.706;23.160;2022-09-09T06:00:03;94343.47;;;17.96;100.00
11049;BME280;5577;42.706;23.160;2022-09-09T06:02:51;94382.78;;;18.30;100.00
11049;BME280;5577;42.706;23.160;2022-09-09T06:05:36;94374.75;;;18.23;100.00
11049;BME280;5577;42.706;23.160;2022-09-09T06:08:20;94371.31;;;18.30;100.00
11049;BME280;5577;42.706;23.160;2022-09-09T06:11:09;94384.31;;;18.42;100.00
11049;BME280;5577;42.706;23.160;2022-09-09T06:13:54;94384.66;;;18.51;100.00
11049;BME280;5577;42.706;23.160;2022-09-09T06:16:38;94375.84;;;18.50;100.00
11049;BME280;5577;42.706;23.160;2022-09-09T06:19:22;94390.34;;;18.60;100.00
11049;BME280;5577;42.706;23.160;2022-09-09T06:22:08;94385.31;;;18.76;100.00
11049;BME280;5577;42.706;23.160;2022-09-09T06:24:56;94384.50;;;18.86;100.00
11049;BME280;5577;42.706;23.160;2022-09-09T06:27:40;94363.78;;;18.86;100.00
11049;BME280;5577;42.706;23.160;2022-09-09T06:30:25;94377.16;;;18.93;100.00
11049;BME280;5577;42.706;23.160;2022-09-09T06:33:10;94361.84;;;18.97;100.00
11049;BME280;5577;42.706;23.160;2022-09-09T06:35:54;94365.25;;;19.01;100.00
11049;BME280;5577;42.706;23.160;2022-09-09T06:38:44;94351.41;;;19.10;100.00
11049;BME280;5577;42.706;23.160;2022-09-09T06:41:31;94353.22;;;19.27;100.00
11049;BME280;5577;42.706;23.160;2022-09-09T06:44:15;94363.50;;;19.39;100.00
11049;BME280;5577;42.706;23.160;2022-09-09T06:47:00;94372.97;;;19.54;100.00
11049;BME280;5577;42.706;23.160;2022-09-09T06:49:44;94372.78;;;19.75;100.00
11049;BME280;5577;42.706;23.160;2022-09-09T06:52:27;94373.91;;;19.77;100.00
11049;BME280;5577;42.706;23.160;2022-09-09T06:55:12;94390.28;;;19.90;100.00
11049;BME280;5577;42.706;23.160;2022-09-09T06:57:56;94381.81;;;19.95;100.00
11049;BME280;5577;42.706;23.160;2022-09-09T07:00:40;94384.75;;;20.08;100.00
11049;BME280;5577;42.706;23.160;2022-09-09T07:03:24;94387.28;;;20.25;100.00
11049;BME280;5577;42.706;23.160;2022-09-09T07:06:15;94387.97;;;20.36;100.00
11049;BME280;5577;42.706;23.160;2022-09-09T07:09:05;94369.63;;;20.28;100.00
11049;BME280;5577;42.706;23.160;2022-09-09T07:11:51;94379.53;;;20.34;100.00
11049;BME280;5577;42.706;23.160;2022-09-09T07:14:36;94375.09;;;20.51;100.00
11049;BME280;5577;42.706;23.160;2022-09-09T07:17:21;94368.28;;;20.73;100.00
11049;BME280;5577;42.706;23.160;2022-09-09T07:20:05;94372.28;;;20.95;100.00
11049;BME280;5577;42.706;23.160;2022-09-09T07:22:54;94358.81;;;20.95;100.00
11049;BME280;5577;42.706;23.160;2022-09-09T07:25:44;94353.19;;;20.82;100.00
11049;BME280;5577;42.706;23.160;2022-09-09T07:28:29;94356.84;;;20.99;100.00
11049;BME280;5577;42.706;23.160;2022-09-09T07:31:23;94370.09;;;21.13;100.00
11049;BME280;5577;42.706;23.160;2022-09-09T07:34:07;94354.94;;;21.22;100.00
11049;BME280;5577;42.706;23.160;2022-09-09T07:36:51;94364.06;;;21.55;100.00
11049;BME280;5577;42.706;23.160;2022-09-09T07:39:35;94377.47;;;21.85;100.00
11049;BME280;5577;42.706;23.160;2022-09-09T07:42:19;94366.22;;;21.90;100.00
11049;BME280;5577;42.706;23.160;2022-09-09T07:45:04;94335.72;;;21.73;100.00
11049;BME280;5577;42.706;23.160;2022-09-09T07:47:49;94381.63;;;22.12;100.00
11049;BME280;5577;42.706;23.160;2022-09-09T07:50:33;94370.84;;;22.32;100.00
11049;BME280;5577;42.706;23.160;2022-09-09T07:53:17;94365.59;;;22.44;100.00
11049;BME280;5577;42.706;23.160;2022-09-09T07:56:11;94365.72;;;22.37;100.00
11049;BME280;5577;42.706;23.160;2022-09-09T07:58:56;94357.88;;;22.66;100.00
11049;BME280;5577;42.706;23.160;2022-09-09T08:01:47;94357.13;;;22.66;100.00
11049;BME280;5577;42.706;23.160;2022-09-09T08:04:31;94375.56;;;22.87;100.00
11049;BME280;5577;42.706;23.160;2022-09-09T08:07:15;94366.22;;;22.91;100.00
11049;BME280;5577;42.706;23.160;2022-09-09T08:10:00;94357.13;;;22.66;100.00
11049;BME280;5577;42.706;23.160;2022-09-09T08:12:44;94372.22;;;22.63;100.00
11049;BME280;5577;42.706;23.160;2022-09-09T08:15:28;94336.25;;;22.46;100.00
11049;BME280;5577;42.706;23.160;2022-09-09T08:18:14;94373.16;;;22.73;100.00
11049;BME280;5577;42.706;23.160;2022-09-09T08:21:05;94360.06;;;22.91;100.00
11049;BME280;5577;42.706;23.160;2022-09-09T08:23:52;94362.50;;;22.66;100.00
11049;BME280;5577;42.706;23.160;2022-09-09T08:26:42;94353.44;;;22.76;100.00
11049;BME280;5577;42.706;23.160;2022-09-09T08:29:26;94352.19;;;22.80;100.00
11049;BME280;5577;42.706;23.160;2022-09-09T08:32:12;94356.81;;;22.80;100.00
11049;BME280;5577;42.706;23.160;2022-09-09T08:34:57;94363.41;;;23.14;100.00
11049;BME280;5577;42.706;23.160;2022-09-09T08:37:41;94352.66;;;23.30;100.00
11049;BME280;5577;42.706;23.160;2022-09-09T08:40:29;94342.00;;;23.39;100.00
11049;BME280;5577;42.706;23.160;2022-09-09T08:43:18;94344.13;;;23.48;100.00
11049;BME280;5577;42.706;23.160;2022-09-09T08:46:13;94341.19;;;23.58;100.00
11049;BME280;5577;42.706;23.160;2022-09-09T08:52:16;94348.00;;;24.39;100.00
11049;BME280;5577;42.706;23.160;2022-09-09T08:58:17;94353.22;;;24.46;100.00
11049;BME280;5577;42.706;23.160;2022-09-09T09:04:19;94351.72;;;24.99;100.00
11049;BME280;5577;42.706;23.160;2022-09-09T09:13:03;94335.81;;;25.01;92.15
11049;BME280;5577;42.706;23.160;2022-09-09T09:15:55;94351.22;;;25.04;97.81
11049;BME280;5577;42.706;23.160;2022-09-09T09:18:42;94357.06;;;25.15;96.55
11049;BME280;5577;42.706;23.160;2022-09-09T09:24:43;94346.53;;;25.80;100.00
11049;BME280;5577;42.706;23.160;2022-09-09T09:27:35;94347.78;;;26.13;92.51
11049;BME280;5577;42.706;23.160;2022-09-09T09:30:22;94335.50;;;25.74;95.29
11049;BME280;5577;42.706;23.160;2022-09-09T09:33:26;94340.47;;;25.13;98.17
11049;BME280;5577;42.706;23.160;2022-09-09T09:36:12;94319.84;;;24.65;100.00
11049;BME280;5577;42.706;23.160;2022-09-09T09:39:00;94336.66;;;24.44;100.00
11049;BME280;5577;42.706;23.160;2022-09-09T09:41:45;94337.56;;;24.25;100.00
11049;BME280;5577;42.706;23.160;2022-09-09T09:44:31;94327.88;;;24.12;100.00
11049;BME280;5577;42.706;23.160;2022-09-09T09:47:17;94337.78;;;24.02;100.00
11049;BME280;5577;42.706;23.160;2022-09-09T09:50:01;94295.19;;;23.90;100.00
11049;BME280;5577;42.706;23.160;2022-09-09T09:53:02;94324.88;;;24.22;100.00
11049;BME280;5577;42.706;23.160;2022-09-09T09:56:03;94325.06;;;24.15;100.00
11049;BME280;5577;42.706;23.160;2022-09-09T09:58:51;94335.22;;;24.11;100.00
11049;BME280;5577;42.706;23.160;2022-09-09T10:01:37;94323.81;;;24.04;100.00
11049;BME280;5577;42.706;23.160;2022-09-09T10:04:22;94333.47;;;23.89;100.00
11049;BME280;5577;42.706;23.160;2022-09-09T10:07:12;94338.88;;;23.73;100.00
11049;BME280;5577;42.706;23.160;2022-09-09T10:09:57;94342.63;;;23.63;100.00
11049;BME280;5577;42.706;23.160;2022-09-09T10:12:57;94343.38;;;23.63;100.00
11049;BME280;5577;42.706;23.160;2022-09-09T10:19:00;94339.50;;;23.96;100.00
11049;BME280;5577;42.706;23.160;2022-09-09T10:31:05;94355.50;;;24.19;100.00
11049;BME280;5577;42.706;23.160;2022-09-09T10:55:14;94357.47;;;24.88;100.00
11049;BME280;5577;42.706;23.160;2022-09-09T10:58:02;94358.75;;;24.84;100.00
11049;BME280;5577;42.706;23.160;2022-09-09T11:00:52;94361.19;;;24.94;100.00
11049;BME280;5577;42.706;23.160;2022-09-09T11:03:38;94341.09;;;24.92;100.00
11049;BME280;5577;42.706;23.160;2022-09-09T11:06:30;94347.66;;;25.07;100.00
11049;BME280;5577;42.706;23.160;2022-09-09T11:09:28;94357.94;;;25.12;100.00
11049;BME280;5577;42.706;23.160;2022-09-09T11:12:19;94343.13;;;25.42;100.00
11049;BME280;5577;42.706;23.160;2022-09-09T11:15:08;94337.59;;;25.58;100.00
11049;BME280;5577;42.706;23.160;2022-09-09T11:18:01;94330.91;;;25.84;100.00
11049;BME280;5577;42.706;23.160;2022-09-09T11:20:58;94336.88;;;25.91;100.00
11049;BME280;5577;42.706;23.160;2022-09-09T11:42:41;94267.22;;;25.88;100.00
11049;BME280;5577;42.706;23.160;2022-09-09T11:45:28;94261.72;;;26.13;100.00
11049;BME280;5577;42.706;23.160;2022-09-09T11:51:10;94261.81;;;26.74;100.00
11049;BME280;5577;42.706;23.160;2022-09-09T11:54:02;94276.91;;;27.36;96.49
11049;BME280;5577;42.706;23.160;2022-09-09T11:56:46;94272.88;;;27.59;91.10
11049;BME280;5577;42.706;23.160;2022-09-09T11:59:31;94260.91;;;27.47;91.19
11049;BME280;5577;42.706;23.160;2022-09-09T12:02:24;94253.84;;;27.19;89.56
11049;BME280;5577;42.706;23.160;2022-09-09T12:05:12;94257.13;;;27.05;94.16
11049;BME280;5577;42.706;23.160;2022-09-09T12:07:58;94200.22;;;26.62;90.63
11049;BME280;5577;42.706;23.160;2022-09-09T12:10:53;94244.59;;;26.68;96.63
11049;BME280;5577;42.706;23.160;2022-09-09T12:13:38;94242.81;;;26.53;96.25
11049;BME280;5577;42.706;23.160;2022-09-09T12:16:36;94237.22;;;26.47;100.00
11049;BME280;5577;42.706;23.160;2022-09-09T12:19:21;94236.56;;;26.95;100.00
11049;BME280;5577;42.706;23.160;2022-09-09T12:28:52;94239.47;;;27.10;94.97
11049;BME280;5577;42.706;23.160;2022-09-09T12:31:51;94244.94;;;26.79;95.14
11049;BME280;5577;42.706;23.160;2022-09-09T12:37:48;94233.81;;;26.34;97.78
11049;BME280;5577;42.706;23.160;2022-09-09T12:40:35;94229.38;;;26.28;100.00
11049;BME280;5577;42.706;23.160;2022-09-09T12:43:21;94219.25;;;26.19;100.00
11049;BME280;5577;42.706;23.160;2022-09-09T12:46:08;94214.84;;;26.43;100.00
11049;BME280;5577;42.706;23.160;2022-09-09T12:48:57;94207.22;;;26.51;100.00
11049;BME280;5577;42.706;23.160;2022-09-09T12:51:43;94206.44;;;26.50;100.00
11049;BME280;5577;42.706;23.160;2022-09-09T12:54:27;94209.25;;;26.38;100.00
11049;BME280;5577;42.706;23.160;2022-09-09T12:57:12;94207.38;;;26.26;100.00
11049;BME280;5577;42.706;23.160;2022-09-09T13:00:14;94212.91;;;26.22;99.89
11049;BME280;5577;42.706;23.160;2022-09-09T13:03:16;94214.88;;;26.22;93.74
11049;BME280;5577;42.706;23.160;2022-09-09T13:06:24;94208.44;;;26.28;100.00
11049;BME280;5577;42.706;23.160;2022-09-09T13:09:08;94194.69;;;26.23;100.00
11049;BME280;5577;42.706;23.160;2022-09-09T13:11:56;94198.09;;;26.14;98.96
11049;BME280;5577;42.706;23.160;2022-09-09T13:14:44;94189.44;;;25.85;94.89
11049;BME280;5577;42.706;23.160;2022-09-09T13:17:30;94191.44;;;25.72;98.24
11049;BME280;5577;42.706;23.160;2022-09-09T13:20:18;94191.69;;;25.65;98.94
11049;BME280;5577;42.706;23.160;2022-09-09T13:23:03;94186.94;;;25.57;100.00
11049;BME280;5577;42.706;23.160;2022-09-09T13:26:00;94186.69;;;25.42;100.00
11049;BME280;5577;42.706;23.160;2022-09-09T13:28:45;94184.41;;;25.41;100.00
11049;BME280;5577;42.706;23.160;2022-09-09T13:31:32;94177.78;;;25.29;100.00
11049;BME280;5577;42.706;23.160;2022-09-09T13:34:29;94175.19;;;25.26;100.00
11049;BME280;5577;42.706;23.160;2022-09-09T13:37:39;94166.84;;;25.20;100.00
11049;BME280;5577;42.706;23.160;2022-09-09T13:40:26;94154.50;;;25.19;100.00
11049;BME280;5577;42.706;23.160;2022-09-09T13:43:18;94168.69;;;25.23;100.00
11049;BME280;5577;42.706;23.160;2022-09-09T13:46:33;94112.59;;;25.11;100.00
11049;BME280;5577;42.706;23.160;2022-09-09T13:49:22;94151.63;;;25.69;100.00
11049;BME280;5577;42.706;23.160;2022-09-09T13:52:12;94156.25;;;26.03;100.00
11049;BME280;5577;42.706;23.160;2022-09-09T13:54:57;94152.66;;;26.27;100.00
11049;BME280;5577;42.706;23.160;2022-09-09T13:57:51;94114.66;;;25.97;100.00
11049;BME280;5577;42.706;23.160;2022-09-09T14:00:35;94143.00;;;26.26;100.00
11049;BME280;5577;42.706;23.160;2022-09-09T14:03:20;94147.75;;;26.13;100.00
11049;BME280;5577;42.706;23.160;2022-09-09T14:06:05;94145.47;;;26.12;97.01
11049;BME280;5577;42.706;23.160;2022-09-09T14:08:50;94145.78;;;26.14;100.00
11049;BME280;5577;42.706;23.160;2022-09-09T14:11:34;94143.53;;;26.43;100.00
11049;BME280;5577;42.706;23.160;2022-09-09T14:14:18;94138.13;;;26.52;94.43
11049;BME280;5577;42.706;23.160;2022-09-09T14:17:02;94137.56;;;26.26;97.63
11049;BME280;5577;42.706;23.160;2022-09-09T14:19:47;94132.78;;;26.39;96.48
11049;BME280;5577;42.706;23.160;2022-09-09T14:22:32;94139.16;;;26.76;95.19
11049;BME280;5577;42.706;23.160;2022-09-09T14:25:16;94125.28;;;26.83;91.46
11049;BME280;5577;42.706;23.160;2022-09-09T14:28:00;94133.13;;;26.81;91.24
11049;BME280;5577;42.706;23.160;2022-09-09T14:30:45;94139.34;;;26.90;91.19
11049;BME280;5577;42.706;23.160;2022-09-09T14:33:30;94144.50;;;27.06;95.19
11049;BME280;5577;42.706;23.160;2022-09-09T14:36:14;94149.81;;;27.10;93.64
11049;BME280;5577;42.706;23.160;2022-09-09T14:38:58;94140.88;;;27.09;97.81
11049;BME280;5577;42.706;23.160;2022-09-09T14:41:42;94133.94;;;27.08;95.43
11049;BME280;5577;42.706;23.160;2022-09-09T14:44:26;94143.31;;;27.07;95.57
11049;BME280;5577;42.706;23.160;2022-09-09T14:47:10;94144.47;;;26.88;84.80
11049;BME280;5577;42.706;23.160;2022-09-09T14:49:54;94151.34;;;26.71;88.81
11049;BME280;5577;42.706;23.160;2022-09-09T14:52:39;94143.03;;;26.66;94.17
11049;BME280;5577;42.706;23.160;2022-09-09T14:55:22;94152.72;;;26.45;97.49
11049;BME280;5577;42.706;23.160;2022-09-09T14:58:06;94144.25;;;26.43;98.62
11049;BME280;5577;42.706;23.160;2022-09-09T15:00:50;94149.59;;;26.25;100.00
11049;BME280;5577;42.706;23.160;2022-09-09T15:03:34;94147.03;;;26.22;100.00
11049;BME280;5577;42.706;23.160;2022-09-09T15:06:20;94149.34;;;26.32;100.00
11049;BME280;5577;42.706;23.160;2022-09-09T15:09:05;94152.06;;;26.32;100.00
11049;BME280;5577;42.706;23.160;2022-09-09T15:11:49;94154.59;;;26.27;100.00
11049;BME280;5577;42.706;23.160;2022-09-09T15:14:33;94148.44;;;26.26;100.00
11049;BME280;5577;42.706;23.160;2022-09-09T15:17:18;94152.31;;;26.25;100.00
11049;BME280;5577;42.706;23.160;2022-09-09T15:20:04;94115.00;;;26.08;100.00
11049;BME280;5577;42.706;23.160;2022-09-09T15:22:49;94128.94;;;26.19;100.00
11049;BME280;5577;42.706;23.160;2022-09-09T15:25:34;94140.06;;;26.12;100.00
11049;BME280;5577;42.706;23.160;2022-09-09T15:28:18;94141.53;;;26.04;100.00
11049;BME280;5577;42.706;23.160;2022-09-09T15:31:05;94138.31;;;25.96;100.00
11049;BME280;5577;42.706;23.160;2022-09-09T15:34:01;94141.25;;;25.89;100.00
11049;BME280;5577;42.706;23.160;2022-09-09T15:36:45;94138.63;;;25.98;100.00
11049;BME280;5577;42.706;23.160;2022-09-09T15:39:29;94141.97;;;26.02;100.00
11049;BME280;5577;42.706;23.160;2022-09-09T15:42:13;94147.63;;;25.95;100.00
11049;BME280;5577;42.706;23.160;2022-09-09T15:44:57;94139.28;;;25.90;100.00
11049;BME280;5577;42.706;23.160;2022-09-09T15:47:41;94138.91;;;25.79;100.00
11049;BME280;5577;42.706;23.160;2022-09-09T15:50:26;94138.22;;;25.66;100.00
11049;BME280;5577;42.706;23.160;2022-09-09T15:53:10;94135.13;;;25.55;100.00
11049;BME280;5577;42.706;23.160;2022-09-09T15:55:55;94131.38;;;25.40;100.00
11049;BME280;5577;42.706;23.160;2022-09-09T15:58:39;94132.16;;;25.28;100.00
11049;BME280;5577;42.706;23.160;2022-09-09T16:01:25;94130.56;;;25.18;100.00
11049;BME280;5577;42.706;23.160;2022-09-09T16:04:09;94131.78;;;25.04;100.00
11049;BME280;5577;42.706;23.160;2022-09-09T16:07:04;94134.97;;;24.90;100.00
11049;BME280;5577;42.706;23.160;2022-09-09T16:09:48;94128.03;;;24.76;100.00
11049;BME280;5577;42.706;23.160;2022-09-09T16:12:35;94134.44;;;24.70;100.00
11049;BME280;5577;42.706;23.160;2022-09-09T16:15:19;94126.88;;;24.65;100.00
11049;BME280;5577;42.706;23.160;2022-09-09T16:18:06;94128.81;;;24.52;100.00
11049;BME280;5577;42.706;23.160;2022-09-09T16:20:54;94124.47;;;24.42;100.00
11049;BME280;5577;42.706;23.160;2022-09-09T16:23:38;94130.97;;;24.32;100.00
11049;BME280;5577;42.706;23.160;2022-09-09T16:26:23;94112.22;;;24.12;100.00
11049;BME280;5577;42.706;23.160;2022-09-09T16:29:06;94119.47;;;24.03;100.00
11049;BME280;5577;42.706;23.160;2022-09-09T16:31:51;94136.69;;;23.96;100.00
11049;BME280;5577;42.706;23.160;2022-09-09T16:34:35;94135.75;;;23.87;100.00
11049;BME280;5577;42.706;23.160;2022-09-09T16:37:19;94133.91;;;23.84;100.00
11049;BME280;5577;42.706;23.160;2022-09-09T16:40:04;94134.78;;;23.81;100.00
11049;BME280;5577;42.706;23.160;2022-09-09T16:42:48;94133.00;;;23.74;100.00
11049;BME280;5577;42.706;23.160;2022-09-09T16:45:32;94134.97;;;23.74;100.00